createdAt,value
2023-05-14T16:56:34.516Z,3.90
2023-05-14T16:59:03.226Z,4.00
2023-05-14T17:01:34.543Z,4.30
2023-05-14T17:04:02.974Z,4.30
2023-05-14T17:06:31.485Z,4.50
2023-05-14T17:09:00.150Z,5.00
2023-05-14T17:11:28.661Z,4.40
2023-05-14T17:14:02.014Z,4.50
2023-05-14T17:16:29.124Z,4.60
2023-05-14T17:18:56.555Z,4.60
2023-05-14T17:21:25.063Z,4.80
2023-05-14T17:23:53.236Z,4.80
2023-05-14T17:26:22.077Z,4.70
2023-05-14T17:28:53.174Z,4.20
2023-05-14T17:31:22.688Z,4.30
2023-05-14T17:33:51.274Z,5.60
2023-05-14T17:36:19.893Z,4.20
2023-05-14T17:38:48.504Z,4.40
2023-05-14T17:41:17.003Z,4.40
2023-05-14T17:43:45.528Z,4.40
2023-05-14T17:46:14.053Z,4.80
2023-05-14T17:48:42.510Z,4.90
2023-05-14T17:51:10.894Z,4.80
2023-05-14T17:53:39.343Z,4.90
2023-05-14T17:56:07.884Z,4.90
2023-05-14T17:58:36.521Z,4.80
2023-05-14T18:01:06.354Z,5.50
2023-05-14T18:03:34.902Z,5.60
2023-05-14T18:06:03.499Z,5.70
2023-05-14T18:08:32.488Z,5.90
2023-05-14T18:11:01.250Z,6.00
2023-05-14T18:13:29.667Z,5.50
2023-05-14T18:15:58.045Z,5.10
2023-05-14T18:18:26.546Z,5.00
2023-05-14T18:20:55.684Z,4.60
2023-05-14T18:23:24.175Z,5.50
2023-05-14T18:25:53.005Z,5.20
2023-05-14T18:28:21.782Z,5.50
2023-05-14T18:30:50.189Z,5.60
2023-05-14T18:33:18.806Z,4.70
2023-05-14T18:35:47.205Z,5.10
2023-05-14T18:38:18.077Z,5.60
2023-05-14T18:40:47.431Z,5.70
2023-05-14T18:43:17.116Z,6.00
2023-05-14T18:45:49.152Z,6.10
2023-05-14T18:48:17.885Z,5.90
2023-05-14T18:50:46.403Z,5.80
2023-05-14T18:53:15.135Z,6.20
2023-05-14T18:55:43.563Z,6.70
2023-05-14T18:58:12.552Z,6.50
2023-05-14T19:00:40.929Z,7.70
2023-05-14T19:03:09.379Z,6.70
2023-05-14T19:05:38.819Z,7.60
2023-05-14T19:08:09.092Z,8.10
2023-05-14T19:10:37.784Z,7.70
2023-05-14T19:13:06.831Z,7.60
2023-05-14T19:15:38.158Z,7.10
2023-05-14T19:18:07.194Z,7.80
2023-05-14T19:20:35.529Z,7.60
2023-05-14T19:23:04.130Z,7.20
2023-05-14T19:25:33.079Z,7.70
2023-05-14T19:28:04.042Z,8.00
2023-05-14T19:30:32.619Z,7.60
2023-05-14T19:33:01.283Z,7.60
2023-05-14T19:35:29.829Z,7.20
2023-05-14T19:37:58.163Z,7.40
2023-05-14T19:40:26.312Z,6.90
2023-05-14T19:42:54.639Z,6.90
2023-05-14T19:45:23.149Z,7.00
2023-05-14T19:47:51.985Z,7.10
2023-05-14T19:50:20.507Z,6.90
2023-05-14T19:52:49.245Z,6.90
2023-05-14T19:55:17.578Z,6.80
2023-05-14T19:57:45.717Z,7.60
2023-05-14T20:00:18.965Z,8.60
2023-05-14T20:02:48.579Z,9.00
2023-05-14T20:05:17.015Z,8.90
2023-05-14T20:07:47.202Z,8.90
2023-05-14T20:10:16.772Z,9.30
2023-05-14T20:12:45.153Z,9.10
2023-05-14T20:15:14.038Z,8.50
2023-05-14T20:17:42.469Z,8.30
2023-05-14T20:20:12.493Z,8.80
2023-05-14T20:22:42.819Z,8.80
2023-05-14T20:25:11.323Z,8.90
2023-05-14T20:27:40.676Z,8.90
2023-05-14T20:30:11.310Z,9.00
2023-05-14T20:32:40.019Z,8.80
2023-05-14T20:35:08.623Z,8.90
2023-05-14T20:37:38.194Z,9.30
2023-05-14T20:40:08.180Z,9.10
2023-05-14T20:42:37.656Z,10.00
2023-05-14T20:45:07.859Z,9.50
2023-05-14T20:47:37.224Z,9.50
2023-05-14T20:50:06.207Z,9.90
2023-05-14T20:52:34.568Z,10.20
2023-05-14T20:55:03.982Z,10.10
2023-05-14T20:57:32.365Z,10.40
2023-05-14T21:00:00.663Z,10.60
2023-05-14T21:02:29.263Z,9.90
2023-05-14T21:04:58.337Z,9.90
2023-05-14T21:07:28.932Z,10.40
2023-05-14T21:09:57.830Z,10.50
2023-05-14T21:12:26.467Z,10.70
2023-05-14T21:14:54.953Z,12.30
2023-05-14T21:17:23.415Z,13.00
2023-05-14T21:19:51.824Z,12.90
2023-05-14T21:22:22.557Z,13.30
2023-05-14T21:24:51.454Z,13.50
2023-05-14T21:27:19.824Z,14.30
2023-05-14T21:29:48.664Z,13.50
2023-05-14T21:32:16.993Z,13.30
2023-05-14T21:34:46.586Z,12.40
2023-05-14T21:37:14.955Z,13.30
2023-05-14T21:39:43.489Z,13.40
2023-05-14T21:42:11.637Z,13.70
2023-05-14T21:44:42.345Z,14.40
2023-05-14T21:47:11.841Z,14.10
2023-05-14T21:49:42.079Z,14.30
2023-05-14T21:52:11.059Z,14.30
2023-05-14T21:54:39.494Z,15.40
2023-05-14T21:57:07.892Z,15.50
2023-05-14T21:59:37.959Z,15.40
2023-05-14T22:02:07.915Z,15.50
2023-05-14T22:04:37.414Z,14.50
2023-05-14T22:07:05.792Z,15.90
2023-05-14T22:09:34.319Z,14.90
2023-05-14T22:12:02.822Z,14.50
2023-05-14T22:14:31.134Z,14.40
2023-05-14T22:16:59.496Z,14.60
2023-05-14T22:19:28.156Z,14.80
2023-05-14T22:21:56.677Z,13.90
2023-05-14T22:24:25.149Z,14.70
2023-05-14T22:26:53.476Z,14.30
2023-05-14T22:29:21.626Z,14.20
2023-05-14T22:31:50.079Z,13.30
2023-05-14T22:34:19.611Z,13.50
2023-05-14T22:36:47.851Z,12.30
2023-05-14T22:39:16.238Z,12.70
2023-05-14T22:41:44.524Z,12.60
2023-05-14T22:44:12.889Z,12.20
2023-05-14T22:46:41.374Z,11.70
2023-05-14T22:49:09.756Z,11.90
2023-05-14T22:51:39.126Z,11.80
2023-05-14T22:54:07.408Z,11.90
2023-05-14T22:56:38.651Z,11.60
2023-05-14T22:59:07.633Z,11.60
2023-05-14T23:01:35.918Z,10.80
2023-05-14T23:04:04.349Z,11.50
2023-05-14T23:06:32.979Z,11.90
2023-05-14T23:09:01.182Z,11.80
2023-05-14T23:11:29.859Z,12.70
2023-05-14T23:13:58.151Z,12.50
2023-05-14T23:16:29.050Z,12.90
2023-05-14T23:18:57.556Z,11.30
2023-05-14T23:21:26.380Z,11.20
2023-05-14T23:23:54.674Z,12.00
2023-05-14T23:26:22.843Z,11.10
2023-05-14T23:28:51.482Z,10.80
2023-05-14T23:31:19.848Z,10.60
2023-05-14T23:33:48.172Z,10.90
2023-05-14T23:36:16.529Z,10.70
2023-05-14T23:38:45.552Z,11.30
2023-05-14T23:41:14.050Z,10.60
2023-05-14T23:43:42.200Z,11.00
2023-05-14T23:46:10.854Z,11.20
2023-05-14T23:48:43.652Z,10.20
2023-05-14T23:51:11.986Z,10.50
2023-05-14T23:53:40.241Z,10.30
2023-05-14T23:56:08.766Z,10.30
2023-05-14T23:58:37.159Z,9.90
